sensor_id;sensor_type;location;lat;lon;timestamp;temperature;humidity
44579;DHT22;37422;51.402;0.016;2022-09-29T00:01:12;6.60;99.90
44579;DHT22;37422;51.402;0.016;2022-09-29T00:03:43;6.20;99.90
44579;DHT22;37422;51.402;0.016;2022-09-29T00:06:14;6.30;99.90
44579;DHT22;37422;51.402;0.016;2022-09-29T00:08:42;6.30;99.90
44579;DHT22;37422;51.402;0.016;2022-09-29T00:11:12;6.30;99.90
44579;DHT22;37422;51.402;0.016;2022-09-29T00:13:40;6.30;99.90
44579;DHT22;37422;51.402;0.016;2022-09-29T00:16:08;6.20;99.90
44579;DHT22;37422;51.402;0.016;2022-09-29T00:18:36;6.20;99.90
44579;DHT22;37422;51.402;0.016;2022-09-29T00:21:09;6.20;99.90
44579;DHT22;37422;51.402;0.016;2022-09-29T00:23:37;6.20;99.90
44579;DHT22;37422;51.402;0.016;2022-09-29T00:29:01;6.40;99.90
44579;DHT22;37422;51.402;0.016;2022-09-29T00:31:31;6.10;99.90
44579;DHT22;37422;51.402;0.016;2022-09-29T00:34:00;6.10;99.90
44579;DHT22;37422;51.402;0.016;2022-09-29T00:36:27;6.20;99.90
44579;DHT22;37422;51.402;0.016;2022-09-29T00:38:58;6.00;99.90
44579;DHT22;37422;51.402;0.016;2022-09-29T00:41:37;6.10;99.90
44579;DHT22;37422;51.402;0.016;2022-09-29T00:47:01;6.10;99.90
44579;DHT22;37422;51.402;0.016;2022-09-29T00:54:50;6.00;99.90
44579;DHT22;37422;51.402;0.016;2022-09-29T00:57:21;6.00;99.90
44579;DHT22;37422;51.402;0.016;2022-09-29T00:59:57;6.00;99.90
44579;DHT22;37422;51.402;0.016;2022-09-29T01:02:28;6.00;99.90
44579;DHT22;37422;51.402;0.016;2022-09-29T01:04:57;6.00;99.90
44579;DHT22;37422;51.402;0.016;2022-09-29T01:07:26;6.00;99.90
44579;DHT22;37422;51.402;0.016;2022-09-29T01:09:56;5.90;99.90
44579;DHT22;37422;51.402;0.016;2022-09-29T01:12:24;5.90;99.90
44579;DHT22;37422;51.402;0.016;2022-09-29T01:14:52;5.90;99.90
44579;DHT22;37422;51.402;0.016;2022-09-29T01:17:22;5.80;99.90
44579;DHT22;37422;51.402;0.016;2022-09-29T01:20:22;5.80;99.90
44579;DHT22;37422;51.402;0.016;2022-09-29T01:34:09;5.80;99.90
44579;DHT22;37422;51.402;0.016;2022-09-29T01:39:47;5.70;99.90
44579;DHT22;37422;51.402;0.016;2022-09-29T01:42:21;5.70;99.90
44579;DHT22;37422;51.402;0.016;2022-09-29T01:44:54;5.70;99.90
44579;DHT22;37422;51.402;0.016;2022-09-29T01:47:40;5.70;99.90
44579;DHT22;37422;51.402;0.016;2022-09-29T01:50:37;5.60;99.90
44579;DHT22;37422;51.402;0.016;2022-09-29T01:53:13;5.60;99.90
44579;DHT22;37422;51.402;0.016;2022-09-29T01:55:46;5.60;99.90
44579;DHT22;37422;51.402;0.016;2022-09-29T01:58:50;5.60;99.90
44579;DHT22;37422;51.402;0.016;2022-09-29T02:01:21;5.60;99.90
44579;DHT22;37422;51.402;0.016;2022-09-29T02:03:54;5.50;99.90
44579;DHT22;37422;51.402;0.016;2022-09-29T02:06:27;5.50;99.90
44579;DHT22;37422;51.402;0.016;2022-09-29T02:08:59;5.50;99.90
44579;DHT22;37422;51.402;0.016;2022-09-29T02:11:31;5.50;99.90
44579;DHT22;37422;51.402;0.016;2022-09-29T02:14:28;5.50;99.90
44579;DHT22;37422;51.402;0.016;2022-09-29T02:17:18;5.50;99.90
44579;DHT22;37422;51.402;0.016;2022-09-29T02:19:50;5.40;99.90
44579;DHT22;37422;51.402;0.016;2022-09-29T02:22:18;5.60;99.90
44579;DHT22;37422;51.402;0.016;2022-09-29T02:24:48;5.40;99.90
44579;DHT22;37422;51.402;0.016;2022-09-29T02:27:16;5.40;99.90
44579;DHT22;37422;51.402;0.016;2022-09-29T02:29:45;5.40;99.90
44579;DHT22;37422;51.402;0.016;2022-09-29T02:32:13;5.40;99.90
44579;DHT22;37422;51.402;0.016;2022-09-29T02:34:42;5.30;99.90
44579;DHT22;37422;51.402;0.016;2022-09-29T02:37:47;5.40;99.90
44579;DHT22;37422;51.402;0.016;2022-09-29T02:40:36;5.30;99.90
44579;DHT22;37422;51.402;0.016;2022-09-29T02:43:32;5.30;99.90
44579;DHT22;37422;51.402;0.016;2022-09-29T02:49:27;5.30;99.90
44579;DHT22;37422;51.402;0.016;2022-09-29T02:57:55;5.20;99.90
44579;DHT22;37422;51.402;0.016;2022-09-29T03:00:25;5.20;99.90
44579;DHT22;37422;51.402;0.016;2022-09-29T03:02:54;5.20;99.90
44579;DHT22;37422;51.402;0.016;2022-09-29T03:05:22;5.20;99.90
44579;DHT22;37422;51.402;0.016;2022-09-29T03:07:52;5.10;99.90
44579;DHT22;37422;51.402;0.016;2022-09-29T03:10:25;5.30;99.90
44579;DHT22;37422;51.402;0.016;2022-09-29T03:12:56;5.10;99.90
44579;DHT22;37422;51.402;0.016;2022-09-29T03:15:24;5.10;99.90
44579;DHT22;37422;51.402;0.016;2022-09-29T03:17:57;5.10;99.90
44579;DHT22;37422;51.402;0.016;2022-09-29T03:20:25;5.10;99.90
44579;DHT22;37422;51.402;0.016;2022-09-29T03:22:56;5.10;99.90
44579;DHT22;37422;51.402;0.016;2022-09-29T03:25:24;5.10;99.90
44579;DHT22;37422;51.402;0.016;2022-09-29T03:27:53;5.10;99.90
44579;DHT22;37422;51.402;0.016;2022-09-29T03:30:21;5.10;99.90
44579;DHT22;37422;51.402;0.016;2022-09-29T03:32:49;5.00;99.90
44579;DHT22;37422;51.402;0.016;2022-09-29T03:35:17;5.10;99.90
44579;DHT22;37422;51.402;0.016;2022-09-29T03:37:46;5.10;99.90
44579;DHT22;37422;51.402;0.016;2022-09-29T03:40:13;5.00;99.90
44579;DHT22;37422;51.402;0.016;2022-09-29T03:42:45;5.00;99.90
44579;DHT22;37422;51.402;0.016;2022-09-29T03:45:16;5.00;99.90
44579;DHT22;37422;51.402;0.016;2022-09-29T03:47:44;5.00;99.90
44579;DHT22;37422;51.402;0.016;2022-09-29T03:50:13;5.00;99.90
44579;DHT22;37422;51.402;0.016;2022-09-29T03:52:40;5.00;99.90
44579;DHT22;37422;51.402;0.016;2022-09-29T03:55:11;5.00;99.90
44579;DHT22;37422;51.402;0.016;2022-09-29T03:57:40;5.00;99.90
44579;DHT22;37422;51.402;0.016;2022-09-29T04:00:08;5.00;99.90
44579;DHT22;37422;51.402;0.016;2022-09-29T04:02:40;5.00;99.90
44579;DHT22;37422;51.402;0.016;2022-09-29T04:05:08;4.90;99.90
44579;DHT22;37422;51.402;0.016;2022-09-29T04:07:36;4.90;99.90
44579;DHT22;37422;51.402;0.016;2022-09-29T04:10:04;4.90;99.90
44579;DHT22;37422;51.402;0.016;2022-09-29T04:12:32;4.90;99.90
44579;DHT22;37422;51.402;0.016;2022-09-29T04:15:00;5.00;99.90
44579;DHT22;37422;51.402;0.016;2022-09-29T04:17:28;4.90;99.90
44579;DHT22;37422;51.402;0.016;2022-09-29T04:19:56;4.90;99.90
44579;DHT22;37422;51.402;0.016;2022-09-29T04:22:44;4.90;99.90
44579;DHT22;37422;51.402;0.016;2022-09-29T04:25:22;4.90;99.90
44579;DHT22;37422;51.402;0.016;2022-09-29T04:27:55;4.90;99.90
44579;DHT22;37422;51.402;0.016;2022-09-29T04:30:23;4.80;99.90
44579;DHT22;37422;51.402;0.016;2022-09-29T04:32:51;4.80;99.90
44579;DHT22;37422;51.402;0.016;2022-09-29T04:35:19;4.80;99.90
44579;DHT22;37422;51.402;0.016;2022-09-29T04:37:57;4.80;99.90
44579;DHT22;37422;51.402;0.016;2022-09-29T04:40:25;4.80;99.90
44579;DHT22;37422;51.402;0.016;2022-09-29T04:43:10;4.80;99.90
44579;DHT22;37422;51.402;0.016;2022-09-29T04:45:45;4.90;99.90
44579;DHT22;37422;51.402;0.016;2022-09-29T04:48:24;5.00;99.90
44579;DHT22;37422;51.402;0.016;2022-09-29T04:50:51;5.10;99.90
44579;DHT22;37422;51.402;0.016;2022-09-29T04:53:21;5.10;99.90
44579;DHT22;37422;51.402;0.016;2022-09-29T04:55:49;5.20;99.90
44579;DHT22;37422;51.402;0.016;2022-09-29T04:58:17;5.30;99.90
44579;DHT22;37422;51.402;0.016;2022-09-29T05:00:45;5.40;99.90
44579;DHT22;37422;51.402;0.016;2022-09-29T05:03:13;5.40;99.90
44579;DHT22;37422;51.402;0.016;2022-09-29T05:05:41;5.50;99.90
44579;DHT22;37422;51.402;0.016;2022-09-29T05:08:09;5.50;99.90
44579;DHT22;37422;51.402;0.016;2022-09-29T05:10:39;5.60;99.90
44579;DHT22;37422;51.402;0.016;2022-09-29T05:13:07;5.60;99.90
44579;DHT22;37422;51.402;0.016;2022-09-29T05:15:35;5.70;99.90
44579;DHT22;37422;51.402;0.016;2022-09-29T05:18:03;5.70;99.90
44579;DHT22;37422;51.402;0.016;2022-09-29T05:20:31;5.70;99.90
44579;DHT22;37422;51.402;0.016;2022-09-29T05:23:11;5.80;99.90
44579;DHT22;37422;51.402;0.016;2022-09-29T05:25:38;5.90;99.90
44579;DHT22;37422;51.402;0.016;2022-09-29T05:28:06;5.90;99.90
44579;DHT22;37422;51.402;0.016;2022-09-29T05:30:36;5.90;99.90
44579;DHT22;37422;51.402;0.016;2022-09-29T05:33:04;6.00;99.90
44579;DHT22;37422;51.402;0.016;2022-09-29T05:35:32;6.00;99.90
44579;DHT22;37422;51.402;0.016;2022-09-29T05:38:00;6.00;99.90
44579;DHT22;37422;51.402;0.016;2022-09-29T05:40:27;6.10;99.90
44579;DHT22;37422;51.402;0.016;2022-09-29T05:42:57;6.10;99.90
44579;DHT22;37422;51.402;0.016;2022-09-29T05:45:26;6.10;99.90
44579;DHT22;37422;51.402;0.016;2022-09-29T05:47:54;6.20;99.90
44579;DHT22;37422;51.402;0.016;2022-09-29T05:50:21;6.20;99.90
44579;DHT22;37422;51.402;0.016;2022-09-29T05:52:49;6.30;99.90
44579;DHT22;37422;51.402;0.016;2022-09-29T05:55:19;6.30;99.90
44579;DHT22;37422;51.402;0.016;2022-09-29T05:57:47;6.30;99.90
44579;DHT22;37422;51.402;0.016;2022-09-29T06:00:15;6.40;99.90
44579;DHT22;37422;51.402;0.016;2022-09-29T06:02:43;6.40;99.90
44579;DHT22;37422;51.402;0.016;2022-09-29T06:05:11;6.40;99.90
44579;DHT22;37422;51.402;0.016;2022-09-29T06:07:38;6.50;99.90
44579;DHT22;37422;51.402;0.016;2022-09-29T06:10:06;6.50;99.90
44579;DHT22;37422;51.402;0.016;2022-09-29T06:12:35;6.60;99.90
44579;DHT22;37422;51.402;0.016;2022-09-29T06:15:04;6.60;99.90
44579;DHT22;37422;51.402;0.016;2022-09-29T06:17:32;6.60;99.90
44579;DHT22;37422;51.402;0.016;2022-09-29T06:20:01;6.70;99.90
44579;DHT22;37422;51.402;0.016;2022-09-29T06:22:28;6.70;99.90
44579;DHT22;37422;51.402;0.016;2022-09-29T06:24:59;6.80;99.90
44579;DHT22;37422;51.402;0.016;2022-09-29T06:27:30;6.80;99.90
44579;DHT22;37422;51.402;0.016;2022-09-29T06:29:58;6.90;99.90
44579;DHT22;37422;51.402;0.016;2022-09-29T06:32:29;7.00;99.90
44579;DHT22;37422;51.402;0.016;2022-09-29T06:34:57;7.00;99.90
44579;DHT22;37422;51.402;0.016;2022-09-29T06:37:53;7.10;99.90
44579;DHT22;37422;51.402;0.016;2022-09-29T06:40:22;7.10;99.90
44579;DHT22;37422;51.402;0.016;2022-09-29T06:42:52;7.30;99.90
44579;DHT22;37422;51.402;0.016;2022-09-29T06:45:20;7.30;99.90
44579;DHT22;37422;51.402;0.016;2022-09-29T06:47:49;7.40;99.90
44579;DHT22;37422;51.402;0.016;2022-09-29T06:50:16;7.40;99.90
44579;DHT22;37422;51.402;0.016;2022-09-29T06:52:45;7.50;99.90
44579;DHT22;37422;51.402;0.016;2022-09-29T06:55:27;7.60;99.90
44579;DHT22;37422;51.402;0.016;2022-09-29T06:57:55;7.60;99.90
44579;DHT22;37422;51.402;0.016;2022-09-29T07:00:30;7.70;99.90
44579;DHT22;37422;51.402;0.016;2022-09-29T07:03:02;7.80;99.90
44579;DHT22;37422;51.402;0.016;2022-09-29T07:05:33;7.80;99.90
44579;DHT22;37422;51.402;0.016;2022-09-29T07:08:01;7.90;99.90
44579;DHT22;37422;51.402;0.016;2022-09-29T07:10:30;8.10;99.90
44579;DHT22;37422;51.402;0.016;2022-09-29T07:12:58;8.20;99.90
44579;DHT22;37422;51.402;0.016;2022-09-29T07:15:26;8.30;99.90
44579;DHT22;37422;51.402;0.016;2022-09-29T07:17:59;8.40;99.90
44579;DHT22;37422;51.402;0.016;2022-09-29T07:20:29;8.50;99.90
44579;DHT22;37422;51.402;0.016;2022-09-29T07:22:58;8.60;99.90
44579;DHT22;37422;51.402;0.016;2022-09-29T07:25:26;8.60;99.90
44579;DHT22;37422;51.402;0.016;2022-09-29T07:28:14;8.70;99.90
44579;DHT22;37422;51.402;0.016;2022-09-29T07:30:41;8.80;99.90
44579;DHT22;37422;51.402;0.016;2022-09-29T07:33:09;8.80;99.90
44579;DHT22;37422;51.402;0.016;2022-09-29T07:35:36;8.90;99.90
44579;DHT22;37422;51.402;0.016;2022-09-29T07:38:06;8.90;99.90
44579;DHT22;37422;51.402;0.016;2022-09-29T07:40:34;9.00;99.90
44579;DHT22;37422;51.402;0.016;2022-09-29T07:43:01;9.10;99.90
44579;DHT22;37422;51.402;0.016;2022-09-29T07:45:31;9.20;99.90
44579;DHT22;37422;51.402;0.016;2022-09-29T07:47:59;9.30;99.90
44579;DHT22;37422;51.402;0.016;2022-09-29T07:50:27;9.30;99.90
44579;DHT22;37422;51.402;0.016;2022-09-29T07:52:55;9.40;99.90
44579;DHT22;37422;51.402;0.016;2022-09-29T07:55:25;9.50;99.90
44579;DHT22;37422;51.402;0.016;2022-09-29T07:57:53;9.60;99.90
44579;DHT22;37422;51.402;0.016;2022-09-29T08:00:23;9.80;99.90
44579;DHT22;37422;51.402;0.016;2022-09-29T08:02:50;10.00;99.90
44579;DHT22;37422;51.402;0.016;2022-09-29T08:05:18;10.30;99.90
44579;DHT22;37422;51.402;0.016;2022-09-29T08:07:50;10.70;99.90
44579;DHT22;37422;51.402;0.016;2022-09-29T08:10:18;11.40;99.90
44579;DHT22;37422;51.402;0.016;2022-09-29T08:12:46;12.20;99.90
44579;DHT22;37422;51.402;0.016;2022-09-29T08:15:14;13.10;99.90
44579;DHT22;37422;51.402;0.016;2022-09-29T08:17:42;14.00;99.90
44579;DHT22;37422;51.402;0.016;2022-09-29T08:20:09;14.80;99.90
44579;DHT22;37422;51.402;0.016;2022-09-29T08:22:37;15.40;99.90
44579;DHT22;37422;51.402;0.016;2022-09-29T08:25:04;16.10;99.90
44579;DHT22;37422;51.402;0.016;2022-09-29T08:27:32;16.60;99.90
44579;DHT22;37422;51.402;0.016;2022-09-29T08:30:09;17.00;99.90
44579;DHT22;37422;51.402;0.016;2022-09-29T08:32:36;17.40;99.90
44579;DHT22;37422;51.402;0.016;2022-09-29T08:35:05;17.60;99.90
44579;DHT22;37422;51.402;0.016;2022-09-29T08:37:33;17.90;99.90
44579;DHT22;37422;51.402;0.016;2022-09-29T08:40:01;18.10;99.90
44579;DHT22;37422;51.402;0.016;2022-09-29T08:45:41;18.80;97.00
44579;DHT22;37422;51.402;0.016;2022-09-29T08:48:25;19.20;98.30
44579;DHT22;37422;51.402;0.016;2022-09-29T08:51:06;19.40;97.90
44579;DHT22;37422;51.402;0.016;2022-09-29T08:53:36;19.70;95.80
44579;DHT22;37422;51.402;0.016;2022-09-29T08:56:07;19.80;93.20
44579;DHT22;37422;51.402;0.016;2022-09-29T08:58:37;20.00;96.50
44579;DHT22;37422;51.402;0.016;2022-09-29T09:01:23;20.20;95.90
44579;DHT22;37422;51.402;0.016;2022-09-29T09:07:19;20.50;92.00
44579;DHT22;37422;51.402;0.016;2022-09-29T09:21:16;21.80;91.40
44579;DHT22;37422;51.402;0.016;2022-09-29T09:26:45;22.00;91.10
44579;DHT22;37422;51.402;0.016;2022-09-29T09:29:18;22.30;86.90
44579;DHT22;37422;51.402;0.016;2022-09-29T09:31:56;22.50;90.80
44579;DHT22;37422;51.402;0.016;2022-09-29T09:34:44;22.70;87.60
44579;DHT22;37422;51.402;0.016;2022-09-29T09:37:15;22.90;84.80
44579;DHT22;37422;51.402;0.016;2022-09-29T09:42:30;22.60;86.60
44579;DHT22;37422;51.402;0.016;2022-09-29T09:47:40;22.70;85.80
44579;DHT22;37422;51.402;0.016;2022-09-29T09:50:12;23.10;84.20
44579;DHT22;37422;51.402;0.016;2022-09-29T09:52:47;23.50;85.00
44579;DHT22;37422;51.402;0.016;2022-09-29T09:55:22;23.80;84.00
44579;DHT22;37422;51.402;0.016;2022-09-29T09:58:00;23.90;78.20
44579;DHT22;37422;51.402;0.016;2022-09-29T10:03:19;24.00;79.60
44579;DHT22;37422;51.402;0.016;2022-09-29T10:05:48;23.80;80.90
44579;DHT22;37422;51.402;0.016;2022-09-29T10:08:23;24.00;80.90
44579;DHT22;37422;51.402;0.016;2022-09-29T10:10:52;24.20;77.70
44579;DHT22;37422;51.402;0.016;2022-09-29T10:13:28;24.50;79.40
44579;DHT22;37422;51.402;0.016;2022-09-29T10:20:56;25.00;77.10
44579;DHT22;37422;51.402;0.016;2022-09-29T10:23:30;25.10;77.20
44579;DHT22;37422;51.402;0.016;2022-09-29T10:28:47;25.20;76.20
44579;DHT22;37422;51.402;0.016;2022-09-29T10:33:59;25.60;74.10
44579;DHT22;37422;51.402;0.016;2022-09-29T10:36:32;25.10;73.40
44579;DHT22;37422;51.402;0.016;2022-09-29T10:39:00;24.30;72.70
44579;DHT22;37422;51.402;0.016;2022-09-29T10:41:49;23.60;73.90
44579;DHT22;37422;51.402;0.016;2022-09-29T10:44:20;23.10;73.30
44579;DHT22;37422;51.402;0.016;2022-09-29T10:46:55;23.10;73.70
44579;DHT22;37422;51.402;0.016;2022-09-29T10:49:25;23.00;74.10
44579;DHT22;37422;51.402;0.016;2022-09-29T10:52:01;22.70;75.20
44579;DHT22;37422;51.402;0.016;2022-09-29T10:54:34;22.30;75.20
44579;DHT22;37422;51.402;0.016;2022-09-29T10:57:13;22.30;75.70
44579;DHT22;37422;51.402;0.016;2022-09-29T10:59:47;22.30;74.80
44579;DHT22;37422;51.402;0.016;2022-09-29T11:02:38;22.10;75.40
44579;DHT22;37422;51.402;0.016;2022-09-29T11:05:18;22.20;75.20
44579;DHT22;37422;51.402;0.016;2022-09-29T11:07:49;22.40;73.80
44579;DHT22;37422;51.402;0.016;2022-09-29T11:12:55;22.00;74.10
44579;DHT22;37422;51.402;0.016;2022-09-29T11:15:38;21.80;75.50
44579;DHT22;37422;51.402;0.016;2022-09-29T11:18:18;21.40;75.10
44579;DHT22;37422;51.402;0.016;2022-09-29T11:20:52;20.80;75.60
44579;DHT22;37422;51.402;0.016;2022-09-29T11:26:31;19.90;77.10
44579;DHT22;37422;51.402;0.016;2022-09-29T11:29:12;19.80;77.80
44579;DHT22;37422;51.402;0.016;2022-09-29T11:32:04;19.70;77.80
44579;DHT22;37422;51.402;0.016;2022-09-29T11:35:01;19.40;78.10
44579;DHT22;37422;51.402;0.016;2022-09-29T11:54:32;22.50;73.50
44579;DHT22;37422;51.402;0.016;2022-09-29T12:00:13;24.30;74.20
44579;DHT22;37422;51.402;0.016;2022-09-29T12:05:34;23.50;71.20
44579;DHT22;37422;51.402;0.016;2022-09-29T12:08:41;22.60;72.90
44579;DHT22;37422;51.402;0.016;2022-09-29T12:11:19;21.70;73.00
44579;DHT22;37422;51.402;0.016;2022-09-29T12:14:27;20.90;74.90
44579;DHT22;37422;51.402;0.016;2022-09-29T12:17:13;20.20;75.60
44579;DHT22;37422;51.402;0.016;2022-09-29T12:19:44;20.10;76.70
44579;DHT22;37422;51.402;0.016;2022-09-29T12:22:18;20.60;76.30
44579;DHT22;37422;51.402;0.016;2022-09-29T12:24:49;21.10;72.80
44579;DHT22;37422;51.402;0.016;2022-09-29T12:27:23;21.40;72.60
44579;DHT22;37422;51.402;0.016;2022-09-29T12:30:13;21.10;72.70
44579;DHT22;37422;51.402;0.016;2022-09-29T12:35:33;20.10;73.30
44579;DHT22;37422;51.402;0.016;2022-09-29T12:46:33;18.70;77.30
44579;DHT22;37422;51.402;0.016;2022-09-29T12:52:28;19.40;75.20
44579;DHT22;37422;51.402;0.016;2022-09-29T12:55:01;19.50;75.10
44579;DHT22;37422;51.402;0.016;2022-09-29T12:57:37;19.30;75.00
44579;DHT22;37422;51.402;0.016;2022-09-29T13:08:33;18.10;75.20
44579;DHT22;37422;51.402;0.016;2022-09-29T13:17:05;17.60;74.90
44579;DHT22;37422;51.402;0.016;2022-09-29T13:20:16;17.50;75.80
44579;DHT22;37422;51.402;0.016;2022-09-29T13:28:42;17.70;76.00
44579;DHT22;37422;51.402;0.016;2022-09-29T13:31:18;17.70;76.00
44579;DHT22;37422;51.402;0.016;2022-09-29T13:33:49;17.60;75.80
44579;DHT22;37422;51.402;0.016;2022-09-29T13:36:29;17.60;75.90
44579;DHT22;37422;51.402;0.016;2022-09-29T13:39:05;17.50;75.90
44579;DHT22;37422;51.402;0.016;2022-09-29T13:41:35;17.30;75.70
44579;DHT22;37422;51.402;0.016;2022-09-29T13:44:19;17.20;75.90
44579;DHT22;37422;51.402;0.016;2022-09-29T13:46:49;17.00;76.30
44579;DHT22;37422;51.402;0.016;2022-09-29T13:51:51;16.60;76.00
44579;DHT22;37422;51.402;0.016;2022-09-29T13:54:25;16.50;76.20
44579;DHT22;37422;51.402;0.016;2022-09-29T13:59:43;16.40;76.60
44579;DHT22;37422;51.402;0.016;2022-09-29T14:05:02;16.40;77.10
44579;DHT22;37422;51.402;0.016;2022-09-29T14:07:46;16.40;76.50
44579;DHT22;37422;51.402;0.016;2022-09-29T14:15:42;16.70;76.40
44579;DHT22;37422;51.402;0.016;2022-09-29T14:18:29;16.90;76.50
44579;DHT22;37422;51.402;0.016;2022-09-29T14:21:07;17.10;75.20
44579;DHT22;37422;51.402;0.016;2022-09-29T14:26:44;17.30;73.80
44579;DHT22;37422;51.402;0.016;2022-09-29T14:29:27;17.20;74.10
44579;DHT22;37422;51.402;0.016;2022-09-29T14:31:58;17.10;74.10
44579;DHT22;37422;51.402;0.016;2022-09-29T14:34:29;16.90;74.80
44579;DHT22;37422;51.402;0.016;2022-09-29T14:36:59;16.80;75.20
44579;DHT22;37422;51.402;0.016;2022-09-29T14:39:30;16.70;75.70
44579;DHT22;37422;51.402;0.016;2022-09-29T14:41:57;16.50;76.10
44579;DHT22;37422;51.402;0.016;2022-09-29T14:44:31;16.40;76.20
44579;DHT22;37422;51.402;0.016;2022-09-29T14:50:48;16.30;76.50
44579;DHT22;37422;51.402;0.016;2022-09-29T14:54:15;16.40;76.80
44579;DHT22;37422;51.402;0.016;2022-09-29T15:04:46;16.40;76.10
44579;DHT22;37422;51.402;0.016;2022-09-29T15:07:22;16.30;76.00
44579;DHT22;37422;51.402;0.016;2022-09-29T15:09:56;16.40;76.20
44579;DHT22;37422;51.402;0.016;2022-09-29T15:12:29;16.30;76.20
44579;DHT22;37422;51.402;0.016;2022-09-29T15:14:58;16.30;76.60
44579;DHT22;37422;51.402;0.016;2022-09-29T15:17:51;16.40;76.60
44579;DHT22;37422;51.402;0.016;2022-09-29T15:20:30;16.40;76.10
44579;DHT22;37422;51.402;0.016;2022-09-29T15:23:59;16.40;76.30
44579;DHT22;37422;51.402;0.016;2022-09-29T15:26:12;16.40;76.50
44579;DHT22;37422;51.402;0.016;2022-09-29T15:28:40;16.40;76.40
44579;DHT22;37422;51.402;0.016;2022-09-29T15:31:16;16.40;76.40
44579;DHT22;37422;51.402;0.016;2022-09-29T15:33:45;16.40;76.20
44579;DHT22;37422;51.402;0.016;2022-09-29T15:38:41;16.50;76.40
44579;DHT22;37422;51.402;0.016;2022-09-29T15:49:20;16.40;75.90
44579;DHT22;37422;51.402;0.016;2022-09-29T15:52:06;16.30;75.70
44579;DHT22;37422;51.402;0.016;2022-09-29T15:54:39;16.30;76.00
44579;DHT22;37422;51.402;0.016;2022-09-29T16:05:56;15.90;76.00
44579;DHT22;37422;51.402;0.016;2022-09-29T16:08:26;15.90;76.40
44579;DHT22;37422;51.402;0.016;2022-09-29T16:10:57;15.80;76.50
44579;DHT22;37422;51.402;0.016;2022-09-29T16:13:29;15.70;76.30
44579;DHT22;37422;51.402;0.016;2022-09-29T16:16:10;15.70;76.30
44579;DHT22;37422;51.402;0.016;2022-09-29T16:18:41;15.70;76.20
44579;DHT22;37422;51.402;0.016;2022-09-29T16:21:18;15.70;76.30
44579;DHT22;37422;51.402;0.016;2022-09-29T16:24:14;15.70;76.80
44579;DHT22;37422;51.402;0.016;2022-09-29T16:26:46;15.70;76.10
44579;DHT22;37422;51.402;0.016;2022-09-29T16:31:43;15.70;76.30
44579;DHT22;37422;51.402;0.016;2022-09-29T16:34:25;15.60;76.30
44579;DHT22;37422;51.402;0.016;2022-09-29T16:37:00;15.60;76.40
44579;DHT22;37422;51.402;0.016;2022-09-29T16:39:39;15.60;76.40
44579;DHT22;37422;51.402;0.016;2022-09-29T16:42:18;15.50;76.80
44579;DHT22;37422;51.402;0.016;2022-09-29T16:44:47;15.40;76.70
44579;DHT22;37422;51.402;0.016;2022-09-29T16:47:23;15.40;76.90
44579;DHT22;37422;51.402;0.016;2022-09-29T16:49:58;15.30;77.10
44579;DHT22;37422;51.402;0.016;2022-09-29T16:52:41;15.20;77.50
44579;DHT22;37422;51.402;0.016;2022-09-29T16:55:17;15.10;77.40
44579;DHT22;37422;51.402;0.016;2022-09-29T17:00:25;15.00;78.00
44579;DHT22;37422;51.402;0.016;2022-09-29T17:02:54;14.90;77.70
44579;DHT22;37422;51.402;0.016;2022-09-29T17:05:23;14.90;78.00
44579;DHT22;37422;51.402;0.016;2022-09-29T17:07:59;14.80;78.20
44579;DHT22;37422;51.402;0.016;2022-09-29T17:10:27;14.70;79.50
44579;DHT22;37422;51.402;0.016;2022-09-29T17:12:55;14.60;80.20
44579;DHT22;37422;51.402;0.016;2022-09-29T17:15:24;14.40;81.00
44579;DHT22;37422;51.402;0.016;2022-09-29T17:17:52;14.30;81.70
44579;DHT22;37422;51.402;0.016;2022-09-29T17:20:21;14.20;82.50
44579;DHT22;37422;51.402;0.016;2022-09-29T17:22:57;14.00;83.40
44579;DHT22;37422;51.402;0.016;2022-09-29T17:25:28;13.80;83.90
44579;DHT22;37422;51.402;0.016;2022-09-29T17:27:55;13.70;84.20
44579;DHT22;37422;51.402;0.016;2022-09-29T17:30:40;13.60;84.70
44579;DHT22;37422;51.402;0.016;2022-09-29T17:33:10;13.50;85.00
44579;DHT22;37422;51.402;0.016;2022-09-29T17:35:39;13.40;85.40
44579;DHT22;37422;51.402;0.016;2022-09-29T17:38:09;13.30;87.90
44579;DHT22;37422;51.402;0.016;2022-09-29T17:40:54;13.20;85.60
44579;DHT22;37422;51.402;0.016;2022-09-29T17:43:22;13.20;86.60
44579;DHT22;37422;51.402;0.016;2022-09-29T17:45:53;13.00;86.70
44579;DHT22;37422;51.402;0.016;2022-09-29T17:48:22;12.90;87.10
44579;DHT22;37422;51.402;0.016;2022-09-29T17:50:51;12.80;90.00
44579;DHT22;37422;51.402;0.016;2022-09-29T17:53:23;12.70;87.50
44579;DHT22;37422;51.402;0.016;2022-09-29T17:55:53;12.60;88.20
44579;DHT22;37422;51.402;0.016;2022-09-29T17:58:22;12.50;88.80
44579;DHT22;37422;51.402;0.016;2022-09-29T18:00:52;12.40;90.70
44579;DHT22;37422;51.402;0.016;2022-09-29T18:03:20;12.30;89.10
44579;DHT22;37422;51.402;0.016;2022-09-29T18:05:51;12.20;89.90
44579;DHT22;37422;51.402;0.016;2022-09-29T18:08:27;12.10;90.10
44579;DHT22;37422;51.402;0.016;2022-09-29T18:10:57;12.00;90.30
44579;DHT22;37422;51.402;0.016;2022-09-29T18:13:26;11.90;90.60
44579;DHT22;37422;51.402;0.016;2022-09-29T18:15:55;11.90;90.80
44579;DHT22;37422;51.402;0.016;2022-09-29T18:18:24;11.70;91.00
44579;DHT22;37422;51.402;0.016;2022-09-29T18:20:52;11.70;91.30
44579;DHT22;37422;51.402;0.016;2022-09-29T18:23:20;11.60;91.40
44579;DHT22;37422;51.402;0.016;2022-09-29T18:25:51;11.60;91.60
44579;DHT22;37422;51.402;0.016;2022-09-29T18:28:19;11.50;91.80
44579;DHT22;37422;51.402;0.016;2022-09-29T18:30:49;11.40;91.90
44579;DHT22;37422;51.402;0.016;2022-09-29T18:33:19;11.30;92.00
44579;DHT22;37422;51.402;0.016;2022-09-29T18:35:51;11.30;92.20
44579;DHT22;37422;51.402;0.016;2022-09-29T18:38:20;11.20;92.30
44579;DHT22;37422;51.402;0.016;2022-09-29T18:40:50;11.20;92.60
44579;DHT22;37422;51.402;0.016;2022-09-29T18:43:21;11.10;92.80
44579;DHT22;37422;51.402;0.016;2022-09-29T18:45:52;11.00;92.90
44579;DHT22;37422;51.402;0.016;2022-09-29T18:48:20;11.00;93.10
44579;DHT22;37422;51.402;0.016;2022-09-29T18:50:50;10.90;93.30
44579;DHT22;37422;51.402;0.016;2022-09-29T18:53:20;10.90;93.50
44579;DHT22;37422;51.402;0.016;2022-09-29T18:55:49;10.80;93.70
44579;DHT22;37422;51.402;0.016;2022-09-29T18:58:22;10.70;93.90
44579;DHT22;37422;51.402;0.016;2022-09-29T19:00:52;10.70;94.00
44579;DHT22;37422;51.402;0.016;2022-09-29T19:03:25;10.60;94.30
44579;DHT22;37422;51.402;0.016;2022-09-29T19:05:54;10.60;94.50
44579;DHT22;37422;51.402;0.016;2022-09-29T19:08:22;10.60;94.70
44579;DHT22;37422;51.402;0.016;2022-09-29T19:10:53;10.50;94.70
44579;DHT22;37422;51.402;0.016;2022-09-29T19:13:21;10.50;94.80
44579;DHT22;37422;51.402;0.016;2022-09-29T19:15:49;10.50;95.00
44579;DHT22;37422;51.402;0.016;2022-09-29T19:18:19;10.50;95.10
44579;DHT22;37422;51.402;0.016;2022-09-29T19:20:50;10.50;95.30
44579;DHT22;37422;51.402;0.016;2022-09-29T19:23:18;10.40;95.50